Provo Municipal Airport Provo US
ICAO: KPVU
IATA: PVU
Category: Medium
Scheduled Services: No

Elevation: 4497 ft
TransAlt. 18000 ft.

Airport Communications:
SALT LAKE CITY APP:124.3
ATIS:135.175
AWOS 3:135.175
SALT LAKE CITY DEP:118.85
GND:119.4
TWR:125.3
CTAF/UNICOM:125.3

KPVU Zoom In..

If you have problems with the map follow the link
https://www.worldairports.se/pages/airport.php?
ICAO=KPVU

Runways:

(A) RW 13 length 8599 ft width 150 ft
ILS 110.30 / hdg 134

(B) RW 18 length 6614 ft width 150 ft
---- / hdg 180

(C) RW 31 length 8599 ft width 150 ft
---- / hdg 314

(D) RW 36 length 6614 ft width 150 ft
---- / hdg 360

Location; KPVU
Day. 08 / Time. 11.56 Zulu
* Altimeter: 29.91
* Temperature: 08° c. 46.4°f.
* Wind from: 120° Speed 09 kn.
Dewpoint: 03° c.
Visibility: 10 Statute Miles.
Clouds: Few 3500 ft.
Clouds: Broken 7000 ft.
Clouds: Overcast 8500 ft.

KPVU 081156Z AUTO 12009KT 10SM FEW035 BKN070 OVC085 08/03 A2991 RMK AO2 SLP113 T00780033 10078 20056 58010


Wind From 120°
Speed 09 kn.

 
 
jpsmedia worldairports.se 2019   terms of use